createdAt,value
2019-03-22T00:00:54.696Z,55.70
2019-03-22T00:03:23.049Z,55.90
2019-03-22T00:05:51.292Z,56.00
2019-03-22T00:08:19.631Z,55.50
2019-03-22T00:10:47.879Z,55.60
2019-03-22T00:13:16.159Z,55.50
2019-03-22T00:15:44.413Z,55.60
2019-03-22T00:18:12.666Z,55.80
2019-03-22T00:20:40.914Z,55.90
2019-03-22T00:23:09.186Z,56.10
2019-03-22T00:25:39.055Z,56.30
2019-03-22T00:28:08.928Z,56.40
2019-03-22T00:30:37.195Z,56.60
2019-03-22T00:33:06.767Z,56.80
2019-03-22T00:35:38.086Z,57.00
2019-03-22T00:38:06.409Z,57.00
2019-03-22T00:40:34.645Z,57.20
2019-03-22T00:43:02.893Z,57.10
2019-03-22T00:45:32.678Z,57.20
2019-03-22T00:48:00.945Z,57.30
2019-03-22T00:50:29.181Z,57.20
2019-03-22T00:52:57.449Z,57.40
2019-03-22T00:55:25.709Z,57.40
2019-03-22T00:57:53.972Z,57.50
2019-03-22T01:00:23.632Z,57.60
2019-03-22T01:02:51.866Z,57.70
2019-03-22T01:05:20.196Z,57.50
2019-03-22T01:07:48.449Z,57.70
2019-03-22T01:10:16.696Z,57.70
2019-03-22T01:12:44.942Z,57.80
2019-03-22T01:15:13.777Z,57.70
2019-03-22T01:17:42.452Z,57.60
2019-03-22T01:20:11.879Z,57.60
2019-03-22T01:22:40.141Z,57.50
2019-03-22T01:25:09.520Z,57.90
2019-03-22T01:27:40.736Z,57.90
2019-03-22T01:30:10.737Z,57.60
2019-03-22T01:32:38.987Z,57.60
2019-03-22T01:35:07.402Z,57.60
2019-03-22T01:37:35.739Z,57.90
2019-03-22T01:40:05.832Z,57.80
2019-03-22T01:42:34.137Z,57.80
2019-03-22T01:45:02.397Z,57.90
2019-03-22T01:47:30.638Z,57.70
2019-03-22T01:49:58.894Z,57.80
2019-03-22T01:52:27.142Z,58.00
2019-03-22T01:54:55.424Z,58.00
2019-03-22T01:57:23.653Z,57.90
2019-03-22T01:59:52.159Z,57.90
2019-03-22T02:02:20.401Z,58.00
2019-03-22T02:04:48.643Z,58.00
2019-03-22T02:07:16.995Z,57.90
2019-03-22T02:09:45.314Z,57.80
2019-03-22T02:12:15.200Z,57.90
2019-03-22T02:14:43.463Z,58.00
2019-03-22T02:17:11.714Z,57.90
2019-03-22T02:19:39.984Z,57.90
2019-03-22T02:22:08.551Z,57.90
2019-03-22T02:24:36.790Z,58.00
2019-03-22T02:27:06.704Z,58.20
2019-03-22T02:29:34.995Z,58.10
2019-03-22T02:32:03.306Z,58.50
2019-03-22T02:34:31.713Z,58.40
2019-03-22T02:37:00.301Z,58.50
2019-03-22T02:39:28.820Z,58.40
2019-03-22T02:41:57.267Z,58.40
2019-03-22T02:44:25.547Z,58.50
2019-03-22T02:46:53.793Z,58.50
2019-03-22T02:49:22.030Z,58.30
2019-03-22T02:51:50.279Z,58.30
2019-03-22T02:54:18.521Z,58.30
2019-03-22T02:56:46.786Z,58.30
2019-03-22T02:59:15.243Z,58.50
2019-03-22T03:01:43.543Z,58.20
2019-03-22T03:04:11.781Z,58.30
2019-03-22T03:06:40.050Z,58.30
2019-03-22T03:09:08.303Z,58.40
2019-03-22T03:11:36.556Z,58.60
2019-03-22T03:14:04.887Z,58.60
2019-03-22T03:16:33.126Z,58.70
2019-03-22T03:19:01.360Z,58.70
2019-03-22T03:21:29.623Z,58.70
2019-03-22T03:23:58.091Z,58.60
2019-03-22T03:26:26.329Z,58.70
2019-03-22T03:28:54.607Z,58.60
2019-03-22T03:31:22.844Z,58.70
2019-03-22T03:33:51.101Z,58.70
2019-03-22T03:36:19.718Z,58.70
2019-03-22T03:38:47.952Z,58.80
2019-03-22T03:41:16.206Z,58.90
2019-03-22T03:43:44.488Z,58.90
2019-03-22T03:46:12.878Z,58.70
2019-03-22T03:48:41.395Z,58.70
2019-03-22T03:51:10.146Z,58.70
2019-03-22T03:53:38.449Z,58.80
2019-03-22T03:56:06.799Z,58.90
2019-03-22T03:58:35.256Z,58.80
2019-03-22T04:01:03.507Z,58.90
2019-03-22T04:03:31.846Z,58.80
2019-03-22T04:06:00.091Z,58.90
2019-03-22T04:08:28.335Z,59.00
2019-03-22T04:10:56.579Z,58.90
2019-03-22T04:13:24.837Z,58.90
2019-03-22T04:16:12.498Z,59.00
2019-03-22T04:18:40.747Z,58.80
2019-03-22T04:21:08.992Z,58.80
2019-03-22T04:23:37.384Z,58.70
2019-03-22T04:26:05.702Z,58.80
2019-03-22T04:28:33.938Z,59.00
2019-03-22T04:31:02.210Z,58.90
2019-03-22T04:33:30.701Z,58.90
2019-03-22T04:35:58.941Z,58.90
2019-03-22T04:38:27.227Z,58.80
2019-03-22T04:40:55.531Z,58.80
2019-03-22T04:43:23.769Z,58.90
2019-03-22T04:45:52.389Z,58.80
2019-03-22T04:48:26.702Z,58.80
2019-03-22T04:50:56.085Z,58.80
2019-03-22T04:53:24.334Z,58.80
2019-03-22T04:55:56.396Z,58.90
2019-03-22T04:58:24.896Z,58.80
2019-03-22T05:00:53.619Z,58.90
2019-03-22T05:03:21.894Z,58.70
2019-03-22T05:05:50.142Z,58.70
2019-03-22T05:08:18.369Z,58.90
2019-03-22T05:10:46.725Z,58.90
2019-03-22T05:13:14.958Z,58.80
2019-03-22T05:15:43.203Z,58.90
2019-03-22T05:18:11.490Z,58.80
2019-03-22T05:20:39.730Z,58.90
2019-03-22T05:23:08.057Z,59.10
2019-03-22T05:25:36.310Z,59.10
2019-03-22T05:28:04.565Z,58.90
2019-03-22T05:30:53.529Z,59.00
2019-03-22T05:33:21.905Z,59.00
2019-03-22T05:35:50.172Z,58.90
2019-03-22T05:38:18.427Z,58.90
2019-03-22T05:40:46.669Z,59.10
2019-03-22T05:43:14.914Z,59.00
2019-03-22T05:45:43.171Z,59.10
2019-03-22T05:48:11.405Z,59.00
2019-03-22T05:50:41.275Z,59.90
2019-03-22T05:53:09.552Z,59.20
2019-03-22T05:55:37.789Z,59.30
2019-03-22T05:58:06.034Z,59.30
2019-03-22T06:00:34.297Z,59.10
2019-03-22T06:03:02.600Z,59.20
2019-03-22T06:05:31.047Z,59.20
2019-03-22T06:07:59.382Z,59.20
2019-03-22T06:10:27.629Z,59.30
2019-03-22T06:12:55.872Z,59.10
2019-03-22T06:15:24.134Z,58.80
2019-03-22T06:17:52.371Z,58.90
2019-03-22T06:20:20.607Z,58.80
2019-03-22T06:22:48.863Z,59.00
2019-03-22T06:25:17.427Z,59.10
2019-03-22T06:27:45.748Z,59.00
2019-03-22T06:30:14.091Z,59.10
2019-03-22T06:32:42.424Z,59.50
2019-03-22T06:35:10.855Z,59.20
2019-03-22T06:37:39.254Z,59.20
2019-03-22T06:40:07.501Z,59.20
2019-03-22T06:42:35.754Z,59.20
2019-03-22T06:45:05.318Z,59.10
2019-03-22T06:47:33.562Z,59.20
2019-03-22T06:50:01.820Z,59.20
2019-03-22T06:52:30.063Z,59.10
2019-03-22T06:54:59.375Z,59.10
2019-03-22T06:57:27.676Z,58.90
2019-03-22T07:00:05.786Z,59.30
2019-03-22T07:02:25.896Z,58.80
2019-03-22T07:04:54.201Z,58.80
2019-03-22T07:07:22.692Z,59.00
2019-03-22T07:09:50.969Z,59.00
2019-03-22T07:12:19.231Z,59.00
2019-03-22T07:14:47.547Z,59.10
2019-03-22T07:17:15.797Z,59.30
2019-03-22T07:19:44.044Z,59.50
2019-03-22T07:22:12.957Z,59.60
2019-03-22T07:24:41.214Z,59.30
2019-03-22T07:27:09.443Z,59.20
2019-03-22T07:29:38.177Z,59.30
2019-03-22T07:32:06.693Z,59.60
2019-03-22T07:34:34.930Z,59.90
2019-03-22T07:37:03.290Z,59.80
2019-03-22T07:39:31.510Z,59.50
2019-03-22T07:41:59.837Z,59.30
2019-03-22T07:44:28.125Z,59.50
2019-03-22T07:46:56.354Z,59.80
2019-03-22T07:49:24.599Z,60.00
2019-03-22T07:51:52.854Z,60.00
2019-03-22T07:54:21.092Z,60.00
2019-03-22T07:56:49.317Z,60.20
2019-03-22T07:59:17.582Z,60.00
2019-03-22T08:01:45.960Z,60.00
2019-03-22T08:04:14.196Z,59.90
2019-03-22T08:06:42.776Z,59.90
2019-03-22T08:09:11.014Z,59.80
2019-03-22T08:11:39.600Z,59.80
2019-03-22T08:14:09.226Z,59.90
2019-03-22T08:16:37.471Z,60.00
2019-03-22T08:19:06.617Z,59.90
2019-03-22T08:21:34.871Z,59.80
2019-03-22T08:24:03.178Z,59.80
2019-03-22T08:26:31.430Z,59.80
2019-03-22T08:28:59.685Z,59.60
2019-03-22T08:31:27.934Z,59.40
2019-03-22T08:33:56.189Z,59.50
2019-03-22T08:36:24.438Z,59.40
2019-03-22T08:38:53.970Z,59.70
2019-03-22T08:41:23.842Z,59.80
2019-03-22T08:43:52.682Z,59.80
2019-03-22T08:46:20.944Z,60.60
2019-03-22T08:48:49.313Z,59.80
2019-03-22T08:51:17.600Z,60.20
2019-03-22T08:53:55.216Z,60.30
2019-03-22T08:56:15.819Z,60.40
2019-03-22T08:58:44.133Z,60.30
2019-03-22T09:01:12.516Z,60.60
2019-03-22T09:03:40.782Z,60.70
2019-03-22T09:06:09.238Z,60.70
2019-03-22T09:08:37.493Z,60.70
2019-03-22T09:11:06.486Z,60.60
2019-03-22T09:13:34.768Z,60.90
2019-03-22T09:16:04.810Z,61.10
2019-03-22T09:18:33.228Z,61.30
2019-03-22T09:21:01.509Z,61.10
2019-03-22T09:23:29.829Z,61.10
2019-03-22T09:25:58.138Z,60.80
2019-03-22T09:28:26.487Z,60.70
2019-03-22T09:30:54.809Z,60.80
2019-03-22T09:33:23.103Z,61.00
2019-03-22T09:35:51.951Z,61.20
2019-03-22T09:38:20.231Z,61.00
2019-03-22T09:40:48.470Z,61.40
2019-03-22T09:43:17.321Z,61.40
2019-03-22T09:45:45.685Z,61.60
2019-03-22T09:48:14.008Z,61.40
2019-03-22T09:50:42.353Z,61.70
2019-03-22T09:53:10.658Z,61.90
2019-03-22T09:55:39.233Z,62.00
2019-03-22T09:58:07.713Z,61.90
2019-03-22T10:00:35.949Z,61.90
2019-03-22T10:03:04.539Z,62.00
2019-03-22T10:05:32.934Z,61.90
2019-03-22T10:08:01.229Z,62.60
2019-03-22T10:10:29.475Z,62.90
2019-03-22T10:12:57.825Z,63.10
2019-03-22T10:15:26.048Z,63.20
2019-03-22T10:17:54.296Z,62.90
2019-03-22T10:20:22.581Z,62.90
2019-03-22T10:22:50.979Z,62.70
2019-03-22T10:25:19.345Z,62.80
2019-03-22T10:27:47.628Z,63.40
2019-03-22T10:30:17.211Z,63.10
2019-03-22T10:32:45.447Z,63.60
2019-03-22T10:35:25.387Z,63.30
2019-03-22T10:37:44.889Z,62.30
2019-03-22T10:40:13.121Z,62.60
2019-03-22T10:42:43.212Z,62.20
2019-03-22T10:45:11.534Z,61.80
2019-03-22T10:47:39.813Z,61.40
2019-03-22T10:50:09.305Z,60.90
2019-03-22T10:52:37.740Z,61.50
2019-03-22T10:55:23.147Z,61.20
2019-03-22T10:57:40.089Z,61.50
2019-03-22T11:00:10.742Z,61.70
2019-03-22T11:02:39.237Z,61.20
2019-03-22T11:05:08.538Z,62.00
2019-03-22T11:07:36.789Z,60.00
2019-03-22T11:10:12.692Z,58.50
2019-03-22T11:12:40.717Z,59.10
2019-03-22T11:15:11.686Z,58.80
2019-03-22T11:17:39.946Z,59.50
2019-03-22T11:20:14.324Z,59.40
2019-03-22T11:22:42.584Z,59.90
2019-03-22T11:25:10.890Z,59.80
2019-03-22T11:27:39.198Z,59.60
2019-03-22T11:30:10.334Z,59.30
2019-03-22T11:32:38.658Z,59.20
2019-03-22T11:35:07.766Z,57.70
2019-03-22T11:37:35.994Z,57.80
2019-03-22T11:40:07.635Z,57.50
2019-03-22T11:42:36.129Z,56.30
2019-03-22T11:45:07.746Z,57.60
2019-03-22T11:47:35.999Z,58.20
2019-03-22T11:50:06.283Z,58.80
2019-03-22T11:52:34.532Z,57.70
2019-03-22T11:55:02.903Z,57.00
2019-03-22T11:57:31.209Z,57.20
2019-03-22T11:59:59.453Z,56.20
2019-03-22T12:02:27.785Z,55.90
2019-03-22T12:04:56.047Z,57.10
2019-03-22T12:07:24.293Z,57.20
2019-03-22T12:09:53.548Z,57.20
2019-03-22T12:12:21.815Z,57.20
2019-03-22T12:14:50.060Z,56.10
2019-03-22T12:17:18.370Z,57.10
2019-03-22T12:19:46.631Z,56.70
2019-03-22T12:22:14.874Z,57.00
2019-03-22T12:24:43.114Z,55.90
2019-03-22T12:27:11.569Z,55.80
2019-03-22T12:29:39.805Z,56.60
2019-03-22T12:32:08.421Z,56.70
2019-03-22T12:34:36.689Z,57.00
2019-03-22T12:37:06.126Z,56.10
2019-03-22T12:39:34.364Z,56.60
2019-03-22T12:42:04.001Z,54.60
2019-03-22T12:44:32.327Z,56.00
2019-03-22T12:47:00.829Z,55.70
2019-03-22T12:49:29.077Z,53.40
2019-03-22T12:51:57.347Z,54.30
2019-03-22T12:54:25.595Z,55.30
2019-03-22T12:56:53.941Z,55.00
2019-03-22T12:59:22.200Z,53.10
2019-03-22T13:01:50.434Z,52.40
2019-03-22T13:04:18.682Z,53.50
2019-03-22T13:06:46.919Z,53.30
2019-03-22T13:09:15.170Z,51.40
2019-03-22T13:11:43.434Z,52.50
2019-03-22T13:14:11.717Z,52.40
2019-03-22T13:16:41.167Z,52.70
2019-03-22T13:19:09.460Z,53.30
2019-03-22T13:21:37.772Z,52.40
2019-03-22T13:24:06.242Z,50.40
2019-03-22T13:26:34.489Z,51.00
2019-03-22T13:29:02.767Z,51.70
2019-03-22T13:31:31.142Z,52.20
2019-03-22T13:33:59.509Z,51.10
2019-03-22T13:36:27.751Z,51.10
2019-03-22T13:38:56.382Z,49.80
2019-03-22T13:41:24.657Z,50.90
2019-03-22T13:46:40.111Z,49.20
2019-03-22T13:49:04.967Z,48.40
2019-03-22T13:51:33.205Z,48.50
2019-03-22T13:54:01.465Z,49.20
2019-03-22T13:56:29.709Z,49.00
2019-03-22T13:58:57.945Z,49.30
2019-03-22T14:01:27.996Z,49.50
2019-03-22T14:03:56.246Z,49.30
2019-03-22T14:06:24.649Z,48.90
2019-03-22T14:08:53.161Z,48.80
2019-03-22T14:11:21.402Z,48.00
2019-03-22T14:13:49.647Z,49.10
2019-03-22T14:16:18.186Z,48.10
2019-03-22T14:18:46.685Z,48.20
2019-03-22T14:21:14.942Z,47.90
2019-03-22T14:23:43.350Z,47.70
2019-03-22T14:26:11.942Z,46.10
2019-03-22T14:28:41.396Z,46.20
2019-03-22T14:31:09.913Z,45.20
2019-03-22T14:33:38.181Z,45.00
2019-03-22T14:36:07.158Z,45.00
2019-03-22T14:38:35.510Z,44.60
2019-03-22T14:41:03.747Z,45.10
2019-03-22T14:43:32.096Z,45.20
2019-03-22T14:46:00.442Z,45.30
2019-03-22T14:48:28.684Z,46.40
2019-03-22T14:50:56.926Z,45.90
2019-03-22T14:53:25.182Z,45.80
2019-03-22T14:55:53.519Z,45.90
2019-03-22T14:58:21.827Z,45.60
2019-03-22T15:00:50.089Z,45.90
2019-03-22T15:03:22.712Z,46.30
2019-03-22T15:05:51.650Z,44.40
2019-03-22T15:08:20.181Z,43.70
2019-03-22T15:10:48.419Z,44.00
2019-03-22T15:13:17.217Z,43.30
2019-03-22T15:15:47.276Z,45.40
2019-03-22T15:18:19.974Z,45.00
2019-03-22T15:20:55.539Z,46.20
2019-03-22T15:23:40.645Z,45.20
2019-03-22T15:26:16.891Z,44.50
2019-03-22T15:29:03.235Z,45.40
2019-03-22T15:31:45.267Z,43.70
2019-03-22T15:34:21.019Z,42.30
2019-03-22T15:36:50.897Z,43.30
2019-03-22T15:39:21.056Z,42.60
2019-03-22T15:41:49.614Z,41.60
2019-03-22T15:44:17.986Z,41.30
2019-03-22T15:46:46.418Z,41.40
2019-03-22T15:49:15.018Z,41.30
2019-03-22T15:51:43.394Z,41.90
2019-03-22T15:54:11.646Z,41.10
2019-03-22T15:56:39.886Z,41.70
2019-03-22T15:59:08.121Z,41.50
2019-03-22T16:01:36.465Z,41.40
2019-03-22T16:04:04.694Z,41.40
2019-03-22T16:06:32.938Z,40.40
2019-03-22T16:09:01.199Z,41.20
2019-03-22T16:11:29.429Z,40.70
2019-03-22T16:13:57.680Z,40.90
2019-03-22T16:16:25.931Z,40.90
2019-03-22T16:18:54.154Z,40.80
2019-03-22T16:21:22.408Z,40.50
2019-03-22T16:23:50.669Z,41.20
2019-03-22T16:26:18.923Z,41.20
2019-03-22T16:28:47.158Z,40.70
2019-03-22T16:31:15.418Z,40.60
2019-03-22T16:33:43.654Z,40.90
2019-03-22T16:36:11.885Z,40.50
2019-03-22T16:38:40.549Z,41.10
2019-03-22T16:41:08.790Z,40.80
2019-03-22T16:43:37.025Z,40.70
2019-03-22T16:46:05.809Z,40.40
2019-03-22T16:48:34.102Z,40.40
2019-03-22T16:51:02.471Z,41.00
2019-03-22T16:53:31.062Z,40.60
2019-03-22T16:56:01.432Z,40.30
2019-03-22T16:58:29.679Z,40.10
2019-03-22T17:00:58.090Z,40.70
2019-03-22T17:03:26.347Z,40.70
2019-03-22T17:05:54.765Z,40.40
2019-03-22T17:08:23.031Z,40.30
2019-03-22T17:10:51.271Z,40.20
2019-03-22T17:13:19.512Z,40.40
2019-03-22T17:15:49.921Z,40.00
2019-03-22T17:18:18.224Z,41.10
2019-03-22T17:20:46.478Z,41.10
2019-03-22T17:23:14.733Z,41.00
2019-03-22T17:25:43.001Z,40.90
2019-03-22T17:28:11.238Z,40.60
2019-03-22T17:30:39.497Z,41.00
2019-03-22T17:33:08.066Z,40.90
2019-03-22T17:35:36.382Z,41.00
2019-03-22T17:38:04.798Z,41.00
2019-03-22T17:40:33.047Z,40.80
2019-03-22T17:43:01.348Z,40.90
2019-03-22T17:45:29.621Z,40.90
2019-03-22T17:47:57.866Z,40.80
2019-03-22T17:50:26.102Z,40.80
2019-03-22T17:52:54.814Z,40.80
2019-03-22T17:55:25.227Z,40.90
2019-03-22T17:57:53.937Z,41.00
2019-03-22T18:00:27.033Z,41.00
2019-03-22T18:02:56.933Z,41.30
2019-03-22T18:05:25.581Z,41.40
2019-03-22T18:07:53.839Z,41.50
2019-03-22T18:10:22.070Z,41.40
2019-03-22T18:12:50.313Z,41.10
2019-03-22T18:15:18.577Z,41.20
2019-03-22T18:17:46.817Z,41.20
2019-03-22T18:20:15.896Z,41.40
2019-03-22T18:22:44.270Z,41.50
2019-03-22T18:25:15.632Z,41.50
2019-03-22T18:27:43.407Z,41.60
2019-03-22T18:30:15.703Z,41.70
2019-03-22T18:32:43.951Z,41.90
2019-03-22T18:35:12.205Z,41.80
2019-03-22T18:37:40.461Z,41.90
2019-03-22T18:40:15.055Z,41.80
2019-03-22T18:42:43.001Z,42.00
2019-03-22T18:45:12.891Z,42.00
2019-03-22T18:47:41.882Z,42.10
2019-03-22T18:50:11.407Z,42.00
2019-03-22T18:52:39.713Z,42.20
2019-03-22T18:55:08.520Z,42.20
2019-03-22T18:57:37.438Z,42.40
2019-03-22T19:00:08.548Z,42.40
2019-03-22T19:02:36.857Z,42.40
2019-03-22T19:05:06.662Z,42.60
2019-03-22T19:07:34.914Z,42.60
2019-03-22T19:10:22.586Z,42.70
2019-03-22T19:12:50.865Z,42.70
2019-03-22T19:15:20.411Z,42.70
2019-03-22T19:17:48.629Z,42.80
2019-03-22T19:20:16.897Z,42.90
2019-03-22T19:22:45.141Z,43.10
2019-03-22T19:25:14.600Z,43.10
2019-03-22T19:27:43.017Z,43.20
2019-03-22T19:30:13.157Z,43.30
2019-03-22T19:32:41.477Z,43.50
2019-03-22T19:35:09.737Z,43.50
2019-03-22T19:37:37.995Z,43.60
2019-03-22T19:40:09.169Z,43.70
2019-03-22T19:42:37.442Z,43.90
2019-03-22T19:45:08.189Z,44.00
2019-03-22T19:47:36.699Z,44.10
2019-03-22T19:50:07.103Z,44.20
2019-03-22T19:52:35.490Z,44.20
2019-03-22T19:55:06.300Z,44.30
2019-03-22T19:57:34.833Z,44.40
2019-03-22T20:00:03.692Z,44.60
2019-03-22T20:02:32.156Z,44.50
2019-03-22T20:05:04.563Z,44.60
2019-03-22T20:07:30.386Z,44.70
2019-03-22T20:09:58.623Z,44.80
2019-03-22T20:12:26.894Z,44.90
2019-03-22T20:14:55.142Z,45.10
2019-03-22T20:17:23.421Z,45.10
2019-03-22T20:19:51.689Z,45.10
2019-03-22T20:22:19.922Z,45.20
2019-03-22T20:24:48.161Z,45.30
2019-03-22T20:27:16.443Z,45.40
2019-03-22T20:29:44.698Z,45.50
2019-03-22T20:32:12.946Z,45.50
2019-03-22T20:34:41.762Z,45.50
2019-03-22T20:37:10.143Z,45.70
2019-03-22T20:39:38.392Z,45.70
2019-03-22T20:42:08.346Z,45.60
2019-03-22T20:44:36.592Z,45.70
2019-03-22T20:47:04.833Z,45.70
2019-03-22T20:49:34.717Z,45.90
2019-03-22T20:52:02.994Z,45.90
2019-03-22T20:54:31.230Z,46.00
2019-03-22T20:56:59.814Z,46.10
2019-03-22T20:59:28.613Z,46.10
2019-03-22T21:01:56.862Z,46.20
2019-03-22T21:04:25.406Z,46.20
2019-03-22T21:06:53.668Z,46.30
2019-03-22T21:09:21.962Z,46.40
2019-03-22T21:11:50.306Z,46.50
2019-03-22T21:14:18.574Z,46.70
2019-03-22T21:16:46.815Z,46.80
2019-03-22T21:19:15.062Z,46.70
2019-03-22T21:21:43.310Z,46.80
2019-03-22T21:24:13.204Z,46.80
2019-03-22T21:26:41.614Z,46.90
2019-03-22T21:29:09.865Z,46.80
2019-03-22T21:31:38.102Z,47.00
2019-03-22T21:34:06.543Z,47.10
2019-03-22T21:36:34.837Z,47.10
2019-03-22T21:39:04.325Z,47.40
2019-03-22T21:41:32.846Z,47.30
2019-03-22T21:44:01.095Z,47.60
2019-03-22T21:46:29.350Z,47.80
2019-03-22T21:48:57.642Z,47.70
2019-03-22T21:51:25.964Z,48.40
2019-03-22T21:53:54.202Z,48.20
2019-03-22T21:56:22.497Z,48.10
2019-03-22T21:58:50.758Z,48.30
2019-03-22T22:01:19.537Z,48.50
2019-03-22T22:03:48.071Z,48.80
2019-03-22T22:06:16.326Z,48.70
2019-03-22T22:08:44.678Z,48.80
2019-03-22T22:11:12.983Z,49.00
2019-03-22T22:13:41.221Z,49.20
2019-03-22T22:16:09.540Z,49.20
2019-03-22T22:18:39.155Z,49.50
2019-03-22T22:21:07.421Z,49.50
2019-03-22T22:23:35.673Z,49.70
2019-03-22T22:26:03.922Z,49.70
2019-03-22T22:28:32.223Z,49.60
2019-03-22T22:31:00.494Z,49.80
2019-03-22T22:33:28.742Z,50.00
2019-03-22T22:35:58.847Z,50.00
2019-03-22T22:38:26.965Z,50.10
2019-03-22T22:40:55.221Z,50.40
2019-03-22T22:43:23.457Z,50.30
2019-03-22T22:45:51.723Z,50.30
2019-03-22T22:48:19.968Z,50.30
2019-03-22T22:50:48.214Z,50.40
2019-03-22T22:53:16.447Z,50.50
2019-03-22T22:55:44.706Z,50.60
2019-03-22T22:58:14.586Z,50.80
2019-03-22T23:00:42.847Z,50.80
2019-03-22T23:03:12.486Z,50.60
2019-03-22T23:05:40.735Z,50.60
2019-03-22T23:08:08.974Z,50.80
2019-03-22T23:10:37.233Z,50.90
2019-03-22T23:13:06.045Z,50.90
2019-03-22T23:15:34.301Z,51.00
2019-03-22T23:18:02.616Z,51.00
2019-03-22T23:20:30.899Z,51.00
2019-03-22T23:22:59.147Z,51.00
2019-03-22T23:25:27.704Z,51.00
2019-03-22T23:27:55.967Z,51.20
2019-03-22T23:30:24.184Z,51.20
2019-03-22T23:32:52.535Z,51.20
2019-03-22T23:35:20.810Z,51.30
2019-03-22T23:37:49.036Z,51.40
2019-03-22T23:40:17.294Z,51.50
2019-03-22T23:42:45.680Z,51.60
2019-03-22T23:45:14.213Z,51.40
2019-03-22T23:47:42.492Z,51.50
2019-03-22T23:50:10.743Z,51.60
2019-03-22T23:52:38.990Z,51.80
2019-03-22T23:55:08.889Z,51.80
2019-03-22T23:57:37.132Z,51.80
